Time;durP1;ratioP1;P1;durP2;ratioP2;P2;SDS_P1;SDS_P2;PMS_P1;PMS_P2;Temp;Humidity;BMP_temperature;BMP_pressure;BME280_temperature;BME280_humidity;BME280_pressure;Samples;Min_cycle;Max_cycle;Signal;HPM_P1;HPM_P2
2021/10/24 00:01:19;;;;;;;18.65;14.18;;;;;;;12.58;100.00;102159.16;4937343;29;20035;-72
2021/10/24 00:04:05;;;;;;;21.23;16.55;;;;;;;12.16;100.00;102158.34;4937494;29;20028;-71
2021/10/24 00:06:50;;;;;;;21.60;16.08;;;;;;;12.13;100.00;102167.13;4937593;29;20423;-72
2021/10/24 00:09:36;;;;;;;23.13;15.77;;;;;;;11.85;100.00;102177.66;4937327;29;20504;-72
2021/10/24 00:12:22;;;;;;;21.67;16.02;;;;;;;12.30;100.00;102175.00;4937285;29;20102;-72
2021/10/24 00:15:08;;;;;;;27.20;16.25;;;;;;;12.30;100.00;102175.84;4937873;28;20031;-72
2021/10/24 00:17:54;;;;;;;24.23;16.48;;;;;;;12.72;100.00;102170.53;4937936;28;20023;-72
2021/10/24 00:20:40;;;;;;;21.67;16.23;;;;;;;12.61;100.00;102169.66;4936851;29;20065;-71
2021/10/24 00:23:25;;;;;;;30.38;17.90;;;;;;;12.47;100.00;102175.84;4941334;28;20039;-71
2021/10/24 00:26:11;;;;;;;24.48;15.65;;;;;;;12.57;100.00;102177.56;4941609;28;20031;-71
2021/10/24 00:28:57;;;;;;;22.35;16.02;;;;;;;12.44;100.00;102175.84;4941475;29;20042;-71
2021/10/24 00:31:43;;;;;;;23.48;16.73;;;;;;;12.57;100.00;102167.94;4941259;28;20023;-72
2021/10/24 00:34:29;;;;;;;23.17;17.15;;;;;;;12.27;100.00;102175.00;4940915;28;20373;-72
2021/10/24 00:37:14;;;;;;;25.35;16.25;;;;;;;12.04;100.00;102180.28;4940306;29;20047;-71
2021/10/24 00:40:00;;;;;;;23.13;16.55;;;;;;;11.99;100.00;102183.78;4940916;29;20163;-72
2021/10/24 00:42:49;;;;;;;29.77;17.52;;;;;;;11.98;100.00;102182.88;4940922;29;20038;-72
2021/10/24 00:45:35;;;;;;;24.83;17.30;;;;;;;12.38;100.00;102191.63;4941067;28;20031;-73
2021/10/24 00:48:21;;;;;;;22.70;15.95;;;;;;;12.09;100.00;102191.66;4940647;29;20364;-72
2021/10/24 00:51:08;;;;;;;22.92;16.52;;;;;;;12.25;100.00;102208.28;4940362;29;20031;-72
2021/10/24 00:53:54;;;;;;;24.92;17.15;;;;;;;12.28;100.00;102196.03;4940979;29;20032;-72
2021/10/24 00:56:41;;;;;;;25.13;16.67;;;;;;;11.83;100.00;102198.66;4940913;28;20361;-72
2021/10/24 00:59:27;;;;;;;23.42;16.98;;;;;;;11.99;100.00;102197.78;4940851;29;20497;-72
2021/10/24 01:02:13;;;;;;;27.65;17.15;;;;;;;11.64;100.00;102196.88;4940629;29;20045;-71
2021/10/24 01:04:59;;;;;;;24.20;16.55;;;;;;;11.67;100.00;102204.75;4940836;28;20031;-72
2021/10/24 01:07:47;;;;;;;25.17;16.98;;;;;;;11.36;100.00;102202.91;4940241;29;20444;-72
2021/10/24 01:10:34;;;;;;;26.02;17.58;;;;;;;11.93;100.00;102197.78;4939559;28;20095;-72
2021/10/24 01:13:20;;;;;;;24.95;17.42;;;;;;;12.18;100.00;102188.16;4926712;28;20039;-71
2021/10/24 01:16:24;;;;;;;26.42;17.73;;;;;;;11.78;100.00;102194.28;4938636;29;20039;-71
2021/10/24 01:19:11;;;;;;;25.85;17.65;;;;;;;11.97;100.00;102203.94;4939795;29;20024;-72
2021/10/24 01:21:57;;;;;;;24.40;18.08;;;;;;;11.85;100.00;102199.53;4938238;29;20027;-72
2021/10/24 01:24:42;;;;;;;23.23;17.48;;;;;;;11.80;100.00;102208.25;4939223;29;20043;-72
2021/10/24 01:27:29;;;;;;;27.90;18.75;;;;;;;11.71;100.00;102206.53;4941159;28;20059;-71
2021/10/24 01:30:15;;;;;;;26.45;18.85;;;;;;;11.94;100.00;102188.16;4939205;29;20050;-72
2021/10/24 01:33:01;;;;;;;28.15;17.95;;;;;;;11.56;100.00;102181.94;4938211;29;20031;-72
2021/10/24 01:36:00;;;;;;;26.25;18.95;;;;;;;11.94;100.00;102181.13;4939548;28;20043;-71
2021/10/24 01:38:51;;;;;;;29.10;19.08;;;;;;;11.53;100.00;102182.81;4939231;28;20127;-71
2021/10/24 01:41:37;;;;;;;33.83;20.50;;;;;;;11.85;100.00;102181.13;4925990;28;20059;-72
2021/10/24 01:44:22;;;;;;;29.95;19.30;;;;;;;11.81;100.00;102187.25;4938790;29;20050;-71
2021/10/24 01:47:08;;;;;;;23.95;18.83;;;;;;;11.60;100.00;102182.00;4938985;29;20070;-72
2021/10/24 01:49:54;;;;;;;27.60;20.17;;;;;;;11.72;100.00;102187.25;4938559;29;20032;-72
2021/10/24 01:52:42;;;;;;;27.73;19.17;;;;;;;11.88;100.00;102202.16;4925049;29;20055;-72
2021/10/24 01:55:28;;;;;;;29.60;19.42;;;;;;;11.57;100.00;102192.44;4925421;29;20023;-71
2021/10/24 01:58:14;;;;;;;25.52;17.92;;;;;;;11.64;100.00;102202.13;4939714;28;20380;-72
2021/10/24 02:01:00;;;;;;;25.48;18.52;;;;;;;11.59;100.00;102198.59;4938982;28;20039;-71
2021/10/24 02:03:46;;;;;;;29.63;19.48;;;;;;;11.94;100.00;102196.88;4938600;29;20034;-72
2021/10/24 02:06:32;;;;;;;26.15;17.83;;;;;;;11.82;100.00;102193.41;4939008;28;20055;-71
2021/10/24 02:09:17;;;;;;;23.95;18.27;;;;;;;11.82;100.00;102193.41;4900484;28;1137820;-71
2021/10/24 02:12:03;;;;;;;23.83;17.02;;;;;;;12.13;100.00;102185.50;4938895;29;20495;-71
2021/10/24 02:14:49;;;;;;;27.90;19.23;;;;;;;12.21;100.00;102181.13;4940054;28;20032;-70
2021/10/24 02:17:35;;;;;;;26.20;18.48;;;;;;;11.74;100.00;102198.63;4939851;28;20110;-71
2021/10/24 02:20:22;;;;;;;25.05;18.17;;;;;;;12.09;100.00;102194.28;4940017;29;20354;-71
2021/10/24 02:23:08;;;;;;;23.88;18.05;;;;;;;11.95;100.00;102187.28;4939717;28;20031;-71
2021/10/24 02:25:54;;;;;;;28.40;18.80;;;;;;;12.07;100.00;102190.78;4940974;28;20440;-72
2021/10/24 02:28:39;;;;;;;29.10;18.30;;;;;;;11.93;100.00;102196.91;4939542;28;20036;-71
2021/10/24 02:31:25;;;;;;;25.33;17.55;;;;;;;11.99;100.00;102191.66;4939866;28;20325;-71
2021/10/24 02:34:11;;;;;;;23.95;16.35;;;;;;;12.17;100.00;102199.53;4938525;29;20038;-72
2021/10/24 02:36:57;;;;;;;23.88;18.00;;;;;;;11.63;100.00;102199.50;4938170;29;20019;-71
2021/10/24 02:39:43;;;;;;;25.17;16.85;;;;;;;11.98;100.00;102209.16;4939135;29;20027;-71
2021/10/24 02:42:28;;;;;;;26.63;17.88;;;;;;;11.89;100.00;102209.16;4939030;29;20357;-71
2021/10/24 02:45:14;;;;;;;26.63;18.55;;;;;;;12.56;100.00;102207.38;4938145;29;20020;-70
2021/10/24 02:48:00;;;;;;;24.90;17.83;;;;;;;11.80;100.00;102211.78;4939163;28;20095;-70
2021/10/24 02:50:46;;;;;;;25.42;18.33;;;;;;;12.44;100.00;102217.91;4938745;28;20027;-71
2021/10/24 02:53:32;;;;;;;23.60;17.38;;;;;;;11.80;100.00;102229.28;4938203;29;20028;-70
2021/10/24 02:56:17;;;;;;;24.85;18.58;;;;;;;12.46;100.00;102235.41;4938509;29;20066;-70
2021/10/24 02:59:03;;;;;;;29.88;19.27;;;;;;;12.34;100.00;102221.44;4937810;29;20032;-70
2021/10/24 03:01:49;;;;;;;28.10;19.45;;;;;;;12.29;100.00;102236.31;4937657;29;20031;-71
2021/10/24 03:04:35;;;;;;;24.60;18.02;;;;;;;12.63;100.00;102233.66;4938825;28;20043;-71
2021/10/24 03:07:20;;;;;;;26.67;18.65;;;;;;;12.51;100.00;102232.78;4938250;29;20371;-71
2021/10/24 03:10:07;;;;;;;24.02;18.27;;;;;;;12.70;100.00;102245.03;4939166;28;20067;-71
2021/10/24 03:12:52;;;;;;;22.50;17.33;;;;;;;12.67;100.00;102247.69;4938890;28;20384;-71
2021/10/24 03:15:38;;;;;;;23.95;18.13;;;;;;;12.91;100.00;102247.63;4938404;29;20042;-70
2021/10/24 03:18:24;;;;;;;26.27;18.63;;;;;;;13.06;100.00;102250.25;4924824;29;20461;-71
2021/10/24 03:21:10;;;;;;;23.95;18.92;;;;;;;12.76;100.00;102259.06;4938905;29;20027;-71
2021/10/24 03:23:57;;;;;;;24.40;18.83;;;;;;;13.04;100.00;102263.41;4938605;29;20107;-71
2021/10/24 03:26:42;;;;;;;26.83;18.27;;;;;;;12.60;100.00;102275.72;4938059;29;20032;-71
2021/10/24 03:29:28;;;;;;;25.05;19.20;;;;;;;12.88;100.00;102277.44;4938407;29;20035;-71
2021/10/24 03:32:14;;;;;;;24.15;17.92;;;;;;;13.31;100.00;102276.44;4937442;29;20449;-70
2021/10/24 03:34:59;;;;;;;26.67;18.48;;;;;;;13.01;100.00;102280.94;4938921;28;20023;-71
2021/10/24 03:37:45;;;;;;;28.70;20.38;;;;;;;13.06;100.00;102277.41;4938178;29;20036;-70
2021/10/24 03:40:31;;;;;;;26.75;19.48;;;;;;;12.92;100.00;102292.34;4924611;29;20449;-71
2021/10/24 03:43:17;;;;;;;28.52;19.15;;;;;;;12.89;100.00;102287.09;4937068;29;20114;-70
2021/10/24 03:46:03;;;;;;;32.13;20.38;;;;;;;12.86;100.00;102281.81;4937947;29;20090;-71
2021/10/24 03:48:49;;;;;;;24.17;19.08;;;;;;;13.01;100.00;102283.56;4938175;28;20055;-71
2021/10/24 03:51:34;;;;;;;27.38;19.55;;;;;;;12.68;100.00;102286.22;4938449;29;20038;-71
2021/10/24 03:54:20;;;;;;;29.05;18.65;;;;;;;13.05;100.00;102286.19;4938535;29;20037;-71
2021/10/24 03:57:06;;;;;;;27.83;18.90;;;;;;;13.08;100.00;102293.22;4924103;29;20019;-71
2021/10/24 03:59:52;;;;;;;25.75;19.17;;;;;;;13.12;100.00;102290.56;4937965;28;20077;-71
2021/10/24 04:02:52;;;;;;;26.50;18.65;;;;;;;12.98;100.00;102281.81;4937757;29;20058;-71
2021/10/24 04:05:38;;;;;;;25.55;19.00;;;;;;;13.25;100.00;102272.97;4924998;28;20036;-71
2021/10/24 04:08:24;;;;;;;24.85;18.70;;;;;;;13.18;100.00;102279.16;4938018;29;20042;-71
2021/10/24 04:11:10;;;;;;;25.27;17.73;;;;;;;12.99;100.00;102286.19;4924644;29;20506;-71
2021/10/24 04:13:55;;;;;;;24.90;19.15;;;;;;;13.15;100.00;102287.91;4937596;29;20059;-71
2021/10/24 04:16:41;;;;;;;25.52;19.27;;;;;;;13.05;100.00;102293.19;4937776;29;20024;-71
2021/10/24 04:19:27;;;;;;;25.70;19.08;;;;;;;13.53;100.00;102293.94;4938765;28;20318;-71
2021/10/24 04:22:13;;;;;;;26.40;20.42;;;;;;;13.64;100.00;102297.41;4937914;29;20290;-71
2021/10/24 04:24:58;;;;;;;25.88;18.88;;;;;;;13.35;100.00;102299.25;4937898;29;20370;-71
2021/10/24 04:27:44;;;;;;;23.73;18.20;;;;;;;13.18;100.00;102310.75;4936732;29;20103;-71
2021/10/24 04:30:30;;;;;;;22.98;17.73;;;;;;;12.82;100.00;102300.25;4937244;29;20471;-72
2021/10/24 04:33:16;;;;;;;23.35;18.05;;;;;;;12.98;100.00;102302.00;4937136;29;20036;-72
2021/10/24 04:36:02;;;;;;;28.73;21.25;;;;;;;13.12;100.00;102293.22;4937991;28;20028;-72
2021/10/24 04:38:48;;;;;;;24.10;19.15;;;;;;;12.91;100.00;102289.72;4937485;29;20039;-72
2021/10/24 04:41:34;;;;;;;28.95;19.55;;;;;;;13.07;100.00;102280.94;4937895;29;20038;-72
2021/10/24 04:44:20;;;;;;;27.85;20.45;;;;;;;13.20;100.00;102278.28;4923164;29;20099;-72
2021/10/24 04:47:05;;;;;;;28.83;19.20;;;;;;;13.06;100.00;102282.69;4937154;29;20110;-71
2021/10/24 04:49:51;;;;;;;28.77;19.52;;;;;;;13.22;100.00;102278.28;4923493;29;20035;-71
2021/10/24 04:52:37;;;;;;;23.83;18.55;;;;;;;12.96;100.00;102298.47;4923202;29;20089;-71
2021/10/24 04:55:23;;;;;;;24.83;18.63;;;;;;;13.08;100.00;102314.25;4937510;29;20459;-71
2021/10/24 04:58:09;;;;;;;23.55;18.13;;;;;;;13.21;100.00;102314.22;4937827;29;20036;-71
2021/10/24 05:00:54;;;;;;;25.40;18.52;;;;;;;13.15;100.00;102314.22;4924225;29;20032;-71
2021/10/24 05:03:41;;;;;;;27.05;18.77;;;;;;;13.40;100.00;102317.69;4937814;28;20038;-70
2021/10/24 05:06:27;;;;;;;24.35;18.92;;;;;;;13.43;100.00;102323.78;4937884;29;20043;-70
2021/10/24 05:09:13;;;;;;;26.30;18.40;;;;;;;13.17;100.00;102323.00;4940224;28;20186;-72
2021/10/24 05:11:58;;;;;;;26.27;18.58;;;;;;;12.97;100.00;102337.97;4941019;29;20027;-71
2021/10/24 05:14:44;;;;;;;26.33;18.70;;;;;;;13.09;100.00;102340.56;4939615;29;20036;-71
2021/10/24 05:17:30;;;;;;;24.00;17.90;;;;;;;12.91;100.00;102348.44;4940865;28;20373;-71
2021/10/24 05:20:16;;;;;;;23.65;17.85;;;;;;;13.36;100.00;102343.16;4940321;28;20105;-72
2021/10/24 05:23:02;;;;;;;30.40;19.30;;;;;;;13.25;100.00;102350.19;4940882;28;20038;-71
2021/10/24 05:25:48;;;;;;;26.05;17.52;;;;;;;13.21;100.00;102358.97;4940540;28;20134;-72
2021/10/24 05:28:34;;;;;;;26.60;17.45;;;;;;;13.12;100.00;102352.84;4940990;29;20035;-71
2021/10/24 05:31:20;;;;;;;23.90;18.20;;;;;;;13.37;100.00;102362.44;4940976;29;20111;-70
2021/10/24 05:34:05;;;;;;;24.83;18.38;;;;;;;13.28;100.00;102365.09;4940304;29;20027;-71
2021/10/24 05:36:51;;;;;;;22.55;17.45;;;;;;;13.23;100.00;102373.00;4940331;29;20369;-71
2021/10/24 05:39:37;;;;;;;29.17;18.40;;;;;;;13.09;100.00;102389.69;4939878;29;20038;-71
2021/10/24 05:42:23;;;;;;;28.50;17.42;;;;;;;13.31;100.00;102392.28;4939398;29;20179;-71
2021/10/24 05:45:09;;;;;;;21.70;17.25;;;;;;;13.46;100.00;102384.34;4940431;28;20028;-71
2021/10/24 05:47:55;;;;;;;24.98;17.70;;;;;;;12.88;100.00;102408.09;4939773;29;20032;-71
2021/10/24 05:50:41;;;;;;;23.95;17.35;;;;;;;12.95;100.00;102413.34;4940095;29;20028;-71
2021/10/24 05:53:27;;;;;;;21.60;17.02;;;;;;;12.89;100.00;102417.72;4940221;29;20475;-71
2021/10/24 05:56:13;;;;;;;23.58;16.52;;;;;;;13.20;100.00;102422.16;4940000;28;20472;-71
2021/10/24 05:58:58;;;;;;;23.48;17.98;;;;;;;13.40;100.00;102425.63;4941047;28;20114;-71
2021/10/24 06:01:44;;;;;;;25.85;16.95;;;;;;;13.32;100.00;102419.50;4939227;29;20436;-72
2021/10/24 06:04:30;;;;;;;22.92;16.95;;;;;;;13.24;100.00;102432.69;4939018;29;20036;-71
2021/10/24 06:07:16;;;;;;;24.92;17.70;;;;;;;13.12;100.00;102443.22;4938901;29;20031;-71
2021/10/24 06:10:13;;;;;;;22.65;16.95;;;;;;;13.57;100.00;102437.88;4939162;29;20056;-71
2021/10/24 06:13:00;;;;;;;24.48;17.35;;;;;;;13.23;100.00;102446.69;4939438;29;20023;-72
2021/10/24 06:15:47;;;;;;;21.40;15.90;;;;;;;13.27;100.00;102451.06;4939508;29;20410;-72
2021/10/24 06:18:33;;;;;;;21.95;16.58;;;;;;;13.67;100.00;102455.41;4939719;28;20024;-71
2021/10/24 06:21:19;;;;;;;22.05;16.67;;;;;;;13.01;100.00;102455.50;4939263;29;20473;-71
2021/10/24 06:24:04;;;;;;;23.05;17.15;;;;;;;13.56;100.00;102453.69;4939086;29;20115;-71
2021/10/24 06:26:50;;;;;;;21.58;17.13;;;;;;;13.91;100.00;102457.09;4939607;29;20036;-71
2021/10/24 06:29:36;;;;;;;22.23;16.08;;;;;;;13.45;100.00;102469.50;4939495;28;20034;-71
2021/10/24 06:32:22;;;;;;;24.88;16.80;;;;;;;13.57;100.00;102471.22;4939346;28;20023;-71
2021/10/24 06:35:08;;;;;;;21.38;16.90;;;;;;;13.69;100.00;102480.00;4939604;28;20039;-71
2021/10/24 06:37:54;;;;;;;20.88;15.63;;;;;;;13.66;100.00;102482.63;4939386;28;20038;-72
2021/10/24 06:40:40;;;;;;;20.13;15.82;;;;;;;13.83;100.00;102482.59;4926040;28;20036;-72
2021/10/24 06:43:26;;;;;;;22.75;16.42;;;;;;;13.21;100.00;102477.41;4938708;29;20039;-71
2021/10/24 06:46:12;;;;;;;22.02;16.38;;;;;;;13.88;100.00;102478.19;4938666;29;20111;-71
2021/10/24 06:48:58;;;;;;;23.77;16.27;;;;;;;13.86;100.00;102488.72;4924819;29;20039;-71
2021/10/24 06:51:43;;;;;;;21.15;16.10;;;;;;;13.69;100.00;102482.63;4938645;29;20461;-72
2021/10/24 06:54:29;;;;;;;21.13;15.73;;;;;;;13.84;100.00;102495.78;4938682;28;20364;-71
2021/10/24 06:57:15;;;;;;;23.05;15.98;;;;;;;13.98;100.00;102493.97;4939162;28;20433;-71
2021/10/24 07:00:01;;;;;;;23.45;16.00;;;;;;;13.68;100.00;102487.91;4939058;28;20467;-70
2021/10/24 07:02:48;;;;;;;23.50;16.85;;;;;;;13.79;100.00;102501.94;4939049;28;20031;-71
2021/10/24 07:05:34;;;;;;;25.88;16.83;;;;;;;13.75;100.00;102511.56;4938192;29;20024;-71
2021/10/24 07:08:20;;;;;;;21.73;16.10;;;;;;;13.63;100.00;102506.34;4938921;28;20126;-72
2021/10/24 07:11:06;;;;;;;22.13;15.82;;;;;;;14.06;100.00;102520.28;4936290;29;20039;-72
2021/10/24 07:13:51;;;;;;;22.98;16.05;;;;;;;14.07;100.00;102507.09;4938974;28;20027;-70
2021/10/24 07:16:37;;;;;;;23.20;15.65;;;;;;;13.41;100.00;102511.63;4937815;28;20039;-70
2021/10/24 07:19:23;;;;;;;33.13;16.52;;;;;;;13.77;100.00;102517.75;4938658;29;20027;-71
2021/10/24 07:22:09;;;;;;;23.48;15.43;;;;;;;14.19;100.00;102508.84;4925049;28;20095;-70
2021/10/24 07:24:54;;;;;;;20.70;15.30;;;;;;;13.92;100.00;102522.09;4937321;29;20369;-70
2021/10/24 07:27:41;;;;;;;22.15;16.23;;;;;;;14.20;100.00;102521.97;4938628;28;20354;-72
2021/10/24 07:30:27;;;;;;;20.67;15.30;;;;;;;14.34;100.00;102520.22;4924212;29;20114;-71
2021/10/24 07:33:13;;;;;;;18.08;13.82;;;;;;;14.42;100.00;102523.69;4924449;29;20122;-71
2021/10/24 07:35:59;;;;;;;20.75;14.68;;;;;;;14.84;100.00;102539.28;4938329;28;20106;-71
2021/10/24 07:38:46;;;;;;;21.33;15.75;;;;;;;14.82;100.00;102532.28;4938345;29;20127;-70
2021/10/24 07:41:31;;;;;;;19.95;14.50;;;;;;;15.01;100.00;102541.84;4937784;29;20034;-71
2021/10/24 07:44:18;;;;;;;23.30;14.90;;;;;;;14.36;100.00;102541.31;4937499;29;20031;-71
2021/10/24 07:47:04;;;;;;;20.60;15.63;;;;;;;14.88;100.00;102543.66;4937437;29;20058;-71
2021/10/24 07:49:49;;;;;;;21.58;14.20;;;;;;;14.88;100.00;102542.81;4938317;29;20037;-71
2021/10/24 07:52:37;;;;;;;20.90;11.95;;;;;;;14.50;100.00;102545.66;4938372;28;20373;-71
2021/10/24 07:55:22;;;;;;;14.02;10.82;;;;;;;14.85;100.00;102550.75;4937977;29;20024;-70
2021/10/24 07:58:09;;;;;;;17.00;10.07;;;;;;;14.67;100.00;102549.06;4936982;29;20463;-71
2021/10/24 08:00:55;;;;;;;20.08;10.00;;;;;;;14.52;100.00;102548.28;4938230;28;20473;-71
2021/10/24 08:03:40;;;;;;;21.40;10.57;;;;;;;14.72;100.00;102554.34;4937563;29;20035;-70
2021/10/24 08:06:26;;;;;;;23.83;10.23;;;;;;;14.72;100.00;102557.84;4937009;29;20039;-71
2021/10/24 08:09:12;;;;;;;20.27;9.15;;;;;;;14.92;100.00;102557.75;4936966;28;20466;-70
2021/10/24 08:11:58;;;;;;;18.90;8.68;;;;;;;15.05;100.00;102558.53;4935967;29;20091;-71
2021/10/24 08:14:44;;;;;;;21.48;8.27;;;;;;;14.93;100.00;102559.50;4936751;29;20404;-71
2021/10/24 08:17:30;;;;;;;15.90;7.95;;;;;;;14.68;100.00;102561.38;4937039;29;20028;-71
2021/10/24 08:20:16;;;;;;;13.68;6.80;;;;;;;14.83;100.00;102568.31;4923118;29;20425;-71
2021/10/24 08:23:02;;;;;;;15.70;7.13;;;;;;;14.80;100.00;102568.38;4937795;28;20032;-71
2021/10/24 08:25:50;;;;;;;13.88;6.78;;;;;;;14.74;100.00;102574.56;4937258;29;20106;-71
2021/10/24 08:28:37;;;;;;;9.90;6.53;;;;;;;14.65;100.00;102576.34;4936963;29;20042;-71
2021/10/24 08:31:27;;;;;;;11.63;6.63;;;;;;;14.45;100.00;102581.72;4937481;29;20076;-70
2021/10/24 08:34:12;;;;;;;11.07;6.75;;;;;;;14.66;100.00;102581.63;4937088;29;20042;-71
2021/10/24 08:36:58;;;;;;;11.05;6.38;;;;;;;15.20;100.00;102588.38;4937156;29;20036;-71
2021/10/24 08:39:48;;;;;;;11.50;6.43;;;;;;;14.83;100.00;102586.81;4937051;29;20031;-71
2021/10/24 08:42:38;;;;;;;12.38;5.72;;;;;;;14.70;100.00;102593.03;4936731;29;20432;-71
2021/10/24 08:45:24;;;;;;;11.60;6.10;;;;;;;14.71;100.00;102584.25;4926583;29;20134;-71
2021/10/24 08:48:10;;;;;;;9.73;6.07;;;;;;;15.27;100.00;102597.97;4940720;29;20028;-71
2021/10/24 08:50:55;;;;;;;11.18;5.70;;;;;;;15.26;100.00;102603.28;4940175;29;20028;-71
2021/10/24 08:53:45;;;;;;;17.58;6.53;;;;;;;14.83;100.00;102598.25;4940466;29;20090;-72
2021/10/24 08:56:32;;;;;;;10.77;6.10;;;;;;;14.84;100.00;102594.72;4939989;29;20023;-70
2021/10/24 08:59:17;;;;;;;11.88;6.47;;;;;;;15.03;100.00;102602.56;4926479;29;20028;-70
2021/10/24 09:02:04;;;;;;;21.88;6.35;;;;;;;14.85;100.00;102606.16;4940370;29;20038;-71
2021/10/24 09:04:52;;;;;;;11.05;5.88;;;;;;;15.11;100.00;102604.25;4940500;29;20083;-72
2021/10/24 09:07:38;;;;;;;19.33;6.93;;;;;;;15.43;100.00;102599.66;4939710;29;20028;-72
2021/10/24 09:10:34;;;;;;;12.20;6.07;;;;;;;15.34;100.00;102598.84;4926143;29;20067;-70
2021/10/24 09:13:28;;;;;;;9.77;5.65;;;;;;;15.19;100.00;102596.28;4939778;29;20039;-70
2021/10/24 09:16:13;;;;;;;10.30;5.72;;;;;;;15.78;100.00;102602.00;4939870;29;20457;-71
2021/10/24 09:18:59;;;;;;;14.20;6.10;;;;;;;15.55;100.00;102604.00;4940287;29;20036;-70
2021/10/24 09:21:45;;;;;;;12.77;6.30;;;;;;;15.76;100.00;102606.44;4939690;29;20079;-71
2021/10/24 09:24:31;;;;;;;13.35;4.97;;;;;;;15.62;100.00;102608.31;4940104;29;20027;-71
2021/10/24 09:27:16;;;;;;;9.13;5.22;;;;;;;14.93;99.20;102603.47;4939975;29;20378;-71
2021/10/24 09:30:10;;;;;;;14.10;5.97;;;;;;;15.50;100.00;102606.66;4940036;29;20024;-70
2021/10/24 09:33:03;;;;;;;11.93;6.07;;;;;;;15.51;98.18;102604.91;4940287;29;20524;-70
2021/10/24 09:35:50;;;;;;;16.60;6.22;;;;;;;15.19;98.90;102613.00;4939699;29;20023;-71
2021/10/24 09:38:39;;;;;;;11.77;6.43;;;;;;;15.86;98.73;102610.75;4940173;29;20043;-70
2021/10/24 09:41:30;;;;;;;15.27;8.07;;;;;;;15.93;98.96;102608.06;4940207;28;20450;-71
2021/10/24 09:44:19;;;;;;;11.85;6.20;;;;;;;15.50;100.00;102605.75;4940029;29;20032;-70
2021/10/24 09:47:05;;;;;;;12.07;6.63;;;;;;;15.48;99.55;102610.19;4939455;29;20036;-71
2021/10/24 09:49:51;;;;;;;13.25;6.00;;;;;;;15.05;100.00;102613.97;4925232;29;20142;-70
2021/10/24 09:52:37;;;;;;;12.27;6.18;;;;;;;14.74;100.00;102616.78;4939976;29;20410;-71
2021/10/24 09:55:23;;;;;;;11.20;6.22;;;;;;;15.22;100.00;102610.34;4939108;29;20019;-71
2021/10/24 09:58:11;;;;;;;12.13;6.40;;;;;;;15.23;100.00;102611.22;4939560;29;20104;-69
2021/10/24 10:00:58;;;;;;;14.75;6.93;;;;;;;15.66;100.00;102612.69;4939867;29;20409;-71
2021/10/24 10:03:49;;;;;;;10.40;6.18;;;;;;;15.70;100.00;102611.75;4925871;29;20044;-71
2021/10/24 10:06:34;;;;;;;12.90;5.97;;;;;;;15.70;100.00;102617.06;4939530;29;20430;-71
2021/10/24 10:09:20;;;;;;;15.63;6.85;;;;;;;15.91;100.00;102619.53;4938483;29;20473;-71
2021/10/24 10:12:07;;;;;;;10.63;6.28;;;;;;;16.33;99.22;102619.09;4938707;29;20032;-71
2021/10/24 10:14:58;;;;;;;15.60;6.25;;;;;;;15.94;96.87;102622.13;4939216;29;20035;-71
2021/10/24 10:17:46;;;;;;;12.68;5.78;;;;;;;15.92;99.22;102610.72;4939498;29;20059;-70
2021/10/24 10:20:35;;;;;;;11.70;5.80;;;;;;;16.44;97.69;102615.47;4938951;29;20028;-71
2021/10/24 10:23:36;;;;;;;16.02;8.13;;;;;;;16.54;95.34;102616.22;4939110;29;20096;-71
2021/10/24 10:26:33;;;;;;;13.15;6.55;;;;;;;16.45;90.39;102603.13;4938317;29;20031;-70
2021/10/24 10:29:53;;;;;;;10.60;6.00;;;;;;;16.42;93.67;102611.97;4939298;29;20042;-70
2021/10/24 10:32:51;;;;;;;10.45;5.15;;;;;;;17.07;88.16;102608.47;4938179;29;20094;-72
2021/10/24 10:35:53;;;;;;;10.27;5.50;;;;;;;16.81;84.27;102611.50;4925693;29;20095;-70
2021/10/24 10:38:45;;;;;;;11.80;5.68;;;;;;;16.54;83.90;102603.88;4938295;29;20042;-71
2021/10/24 10:41:34;;;;;;;12.15;5.53;;;;;;;16.63;91.08;102606.41;4938611;29;20346;-71
2021/10/24 10:44:20;;;;;;;10.25;5.55;;;;;;;16.79;89.92;102600.03;4939007;29;20027;-71
2021/10/24 10:47:47;;;;;;;8.25;5.13;;;;;;;16.95;83.44;102596.28;4937864;29;20039;-70
2021/10/24 10:50:38;;;;;;;10.43;4.82;;;;;;;16.64;78.66;102605.50;4938891;29;20067;-70
2021/10/24 10:53:24;;;;;;;9.30;4.40;;;;;;;16.96;73.75;102607.75;4925436;29;20063;-71
2021/10/24 10:56:31;;;;;;;11.00;4.65;;;;;;;17.25;69.89;102608.22;4925552;29;20039;-70
2021/10/24 10:59:36;;;;;;;7.55;4.00;;;;;;;17.32;70.24;102599.28;4938809;29;20342;-71
2021/10/24 11:02:28;;;;;;;8.68;5.22;;;;;;;17.69;69.47;102603.13;4925589;29;20463;-71
2021/10/24 11:05:41;;;;;;;7.45;4.47;;;;;;;17.44;73.76;102601.78;4937819;29;20044;-71
2021/10/24 11:08:50;;;;;;;8.68;4.70;;;;;;;16.71;72.67;102601.00;4938345;29;20536;-70
2021/10/24 11:11:42;;;;;;;11.38;4.25;;;;;;;16.68;66.82;102595.78;4938457;29;20127;-70
2021/10/24 11:14:42;;;;;;;8.27;4.10;;;;;;;17.14;66.71;102592.47;4937494;29;20055;-71
2021/10/24 11:17:32;;;;;;;9.77;3.85;;;;;;;16.90;64.64;102591.94;4937912;29;20046;-71
2021/10/24 11:20:22;;;;;;;9.50;4.43;;;;;;;17.32;65.14;102594.84;4938341;29;20036;-71
2021/10/24 11:23:14;;;;;;;10.10;3.72;;;;;;;17.87;61.49;102589.53;4937364;29;20385;-71
2021/10/24 11:26:00;;;;;;;8.02;4.03;;;;;;;17.48;62.14;102587.56;4938590;29;20086;-71
2021/10/24 11:28:45;;;;;;;9.55;4.32;;;;;;;18.36;64.55;102579.78;4936402;29;20051;-71
2021/10/24 11:31:31;;;;;;;10.30;4.15;;;;;;;18.50;62.09;102585.69;4936675;29;20019;-71
2021/10/24 11:34:33;;;;;;;9.55;4.13;;;;;;;17.52;62.07;102595.44;4937069;29;20134;-71
2021/10/24 11:37:37;;;;;;;7.57;4.07;;;;;;;17.16;63.23;102585.38;4937980;29;20035;-71
2021/10/24 11:40:31;;;;;;;6.88;3.85;;;;;;;17.46;64.23;102584.06;4937732;29;20035;-70
2021/10/24 11:43:19;;;;;;;9.82;3.65;;;;;;;17.85;61.07;102594.00;4937574;29;20406;-70
2021/10/24 11:46:08;;;;;;;7.35;3.85;;;;;;;18.03;63.51;102596.31;4936851;29;20035;-70
2021/10/24 11:49:01;;;;;;;7.15;3.70;;;;;;;17.67;61.23;102595.19;4937391;29;20386;-71
2021/10/24 11:51:49;;;;;;;12.68;4.32;;;;;;;17.89;62.97;102595.69;4937329;29;20417;-71
2021/10/24 11:54:35;;;;;;;7.82;4.05;;;;;;;18.77;62.30;102585.13;4936424;29;20468;-70
2021/10/24 12:03:34;;;;;;;7.47;4.03;;;;;;;17.77;62.40;102595.91;4937792;29;20028;-70
2021/10/24 12:07:01;;;;;;;7.90;3.90;;;;;;;18.02;61.20;102586.59;4937168;29;20042;-71
2021/10/24 12:09:46;;;;;;;6.22;3.88;;;;;;;18.22;59.71;102589.78;4937706;29;20051;-71
2021/10/24 12:12:36;;;;;;;8.68;3.47;;;;;;;18.16;59.26;102592.53;4937223;29;20174;-70
2021/10/24 12:15:38;;;;;;;8.70;4.38;;;;;;;18.08;60.81;102583.81;4937760;29;20030;-70
2021/10/24 12:18:35;;;;;;;10.23;3.40;;;;;;;17.62;54.77;102597.06;4940816;29;20031;-70
2021/10/24 12:21:24;;;;;;;8.27;3.72;;;;;;;17.38;59.38;102592.09;4940418;29;20118;-70
2021/10/24 12:24:19;;;;;;;12.13;3.65;;;;;;;16.90;57.46;102590.19;4940919;29;20039;-70
2021/10/24 12:27:23;;;;;;;5.35;3.28;;;;;;;17.63;57.33;102598.78;4940867;29;20046;-71
2021/10/24 12:30:16;;;;;;;6.68;3.55;;;;;;;18.02;59.31;102597.22;4941486;29;20035;-71
2021/10/24 12:33:11;;;;;;;12.32;5.38;;;;;;;17.32;56.95;102588.69;4941655;29;20428;-70
2021/10/24 12:36:00;;;;;;;6.88;3.58;;;;;;;17.37;57.32;102590.34;4941354;29;20102;-71
2021/10/24 12:38:46;;;;;;;8.95;4.10;;;;;;;17.49;58.40;102590.19;4926653;29;20118;-70
2021/10/24 12:41:37;;;;;;;9.20;3.90;;;;;;;17.33;58.01;102585.13;4940777;29;20042;-71
2021/10/24 12:44:23;;;;;;;7.82;3.78;;;;;;;17.23;57.72;102596.75;4941048;29;20031;-70
2021/10/24 12:47:15;;;;;;;6.68;3.30;;;;;;;17.59;55.11;102588.25;4927689;29;20028;-70